Midlothian, Maryland
Current Conditions -  °F | °C
As of 9:19 AM on Monday 26 Jan 2015 (Local Time) from KCBE Reporting Station
Overcast Overcast  
Wind Chill: 30°   Ceiling: 700
Heat Index: 30°   Visibility: 4mi
Dew Point: 30°   Wind: 0mph
Humidity: 100%   Direction: NA
Pressure: 29.81"   Gusts: NA
Location:  39.63°N, 78.95°W
Report Text: KCBE 261419Z AUTO 00000KT 4SM OVC007 M01/M01 A2981 RMK AO1
Loading
Personal Weather Stations






























Interactive Weather Map New forecast layout! Learn more

10-Day Weather Forecast

Advertisements
Track Severe Weather on mobile